Time;durP1;ratioP1;P1;durP2;ratioP2;P2;SDS_P1;SDS_P2;PMS_P1;PMS_P2;Temp;Humidity;BMP_temperature;BMP_pressure;BME280_temperature;BME280_humidity;BME280_pressure;Samples;Min_cycle;Max_cycle;Signal;HPM_P1;HPM_P2
2022/09/22 00:01:43;;;;;;;6.17;2.60;;;;;;;7.89;96.30;102645.59;5018537;28;20794;-73
2022/09/22 00:04:13;;;;;;;7.97;3.05;;;;;;;7.85;95.49;102634.13;5036255;28;20034;-73
2022/09/22 00:06:46;;;;;;;4.43;2.38;;;;;;;7.82;95.27;102634.41;5035986;28;20049;-73
2022/09/22 00:09:13;;;;;;;8.75;2.85;;;;;;;7.87;94.80;102639.44;5036273;28;20388;-73
2022/09/22 00:11:41;;;;;;;6.15;2.80;;;;;;;7.86;94.49;102635.00;5036134;28;20025;-74
2022/09/22 00:14:16;;;;;;;7.38;2.92;;;;;;;7.87;95.09;102625.81;5036065;28;20507;-74
2022/09/22 00:16:53;;;;;;;6.75;3.05;;;;;;;7.80;94.75;102630.09;5036209;28;20464;-74
2022/09/22 00:19:30;;;;;;;5.32;2.88;;;;;;;7.83;95.66;102629.78;5036156;28;20044;-73
2022/09/22 00:21:56;;;;;;;11.95;2.60;;;;;;;7.83;95.52;102627.06;5036251;28;20100;-73
2022/09/22 00:24:23;;;;;;;5.50;2.85;;;;;;;7.82;94.49;102634.41;5018262;28;20060;-73
2022/09/22 00:26:50;;;;;;;7.20;3.05;;;;;;;7.79;95.67;102617.44;5036055;28;20035;-73
2022/09/22 00:29:16;;;;;;;5.30;3.10;;;;;;;7.83;95.43;102624.34;5036084;28;20117;-73
2022/09/22 00:31:42;;;;;;;4.60;2.70;;;;;;;7.81;95.82;102618.16;5035902;28;20029;-73
2022/09/22 00:34:16;;;;;;;8.23;3.53;;;;;;;7.75;96.08;102616.81;5035728;28;20029;-72
2022/09/22 00:36:42;;;;;;;7.93;3.67;;;;;;;7.73;95.27;102615.25;5035791;28;20033;-72
2022/09/22 00:39:07;;;;;;;4.53;3.03;;;;;;;7.72;95.97;102618.97;5018261;28;20029;-72
2022/09/22 00:41:36;;;;;;;6.82;3.13;;;;;;;7.71;95.59;102612.66;5035691;28;20033;-73
2022/09/22 00:44:20;;;;;;;7.03;3.65;;;;;;;7.72;95.66;102613.50;5035981;28;20025;-74
2022/09/22 00:46:52;;;;;;;5.32;3.33;;;;;;;7.67;95.45;102613.06;5035824;28;20033;-74
2022/09/22 00:49:25;;;;;;;8.07;2.83;;;;;;;7.64;95.93;102608.72;5034866;28;20025;-73
2022/09/22 00:51:50;;;;;;;13.10;3.67;;;;;;;7.57;95.42;102601.22;5032170;28;20032;-73
2022/09/22 00:54:17;;;;;;;9.70;4.15;;;;;;;7.61;96.70;102609.03;5032418;28;20480;-73
2022/09/22 00:56:51;;;;;;;8.10;3.65;;;;;;;7.64;96.24;102613.34;5032305;28;20099;-73
2022/09/22 00:59:20;;;;;;;5.25;3.63;;;;;;;7.60;95.54;102604.56;5032438;28;20079;-73
2022/09/22 01:01:46;;;;;;;5.90;3.08;;;;;;;7.53;95.62;102603.38;5032423;28;20033;-73
2022/09/22 01:04:12;;;;;;;4.40;3.50;;;;;;;7.57;95.58;102603.94;5032407;28;20087;-73
2022/09/22 01:06:39;;;;;;;7.93;3.78;;;;;;;7.51;95.50;102602.66;5032141;28;20072;-73
2022/09/22 01:09:05;;;;;;;5.68;3.28;;;;;;;7.59;95.83;102600.09;5032407;28;20028;-73
2022/09/22 01:11:32;;;;;;;5.90;3.50;;;;;;;7.53;95.44;102591.63;5032001;28;20026;-73
2022/09/22 01:14:12;;;;;;;;;;;;;;;7.54;95.55;102599.63;5032578;28;20033;-73
2022/09/22 01:16:40;;;;;;;7.28;3.53;;;;;;;7.55;95.54;102595.94;5032026;28;19998;-73
2022/09/22 01:19:43;;;;;;;9.30;4.03;;;;;;;7.54;94.84;102591.44;5032193;28;20033;-73
2022/09/22 01:22:19;;;;;;;7.30;3.50;;;;;;;7.46;94.09;102593.13;5032132;28;20032;-74
2022/09/22 01:25:36;;;;;;;5.85;3.58;;;;;;;7.48;96.37;102588.44;5031870;28;20033;-73
2022/09/22 01:28:07;;;;;;;5.97;3.20;;;;;;;7.40;96.34;102590.94;4998961;28;20111;-74
2022/09/22 01:30:38;;;;;;;4.93;3.47;;;;;;;7.37;96.68;102580.31;5031839;28;20030;-73
2022/09/22 01:33:18;;;;;;;5.20;3.50;;;;;;;7.42;96.99;102581.63;5031929;28;20033;-73
2022/09/22 01:36:08;;;;;;;10.32;3.53;;;;;;;7.43;96.35;102590.69;5031690;28;20026;-72
2022/09/22 01:39:00;;;;;;;8.80;4.50;;;;;;;7.43;97.43;102582.50;5031759;28;20190;-73
2022/09/22 01:41:57;;;;;;;12.98;4.68;;;;;;;7.46;97.17;102571.31;5031540;28;20037;-74
2022/09/22 01:44:36;;;;;;;8.15;4.70;;;;;;;7.47;96.57;102575.81;5031577;28;20030;-73
2022/09/22 01:47:10;;;;;;;10.73;4.93;;;;;;;7.46;96.85;102574.03;5031781;28;20109;-75
2022/09/22 01:49:41;;;;;;;13.48;4.95;;;;;;;7.47;96.68;102567.63;5031368;28;20065;-75
2022/09/22 01:52:15;;;;;;;10.38;4.80;;;;;;;7.47;96.54;102568.47;5031587;28;20147;-74
2022/09/22 01:54:46;;;;;;;8.82;4.53;;;;;;;7.43;97.04;102564.28;5031044;28;20498;-74
2022/09/22 01:57:21;;;;;;;10.65;5.00;;;;;;;7.43;97.05;102563.44;5031457;28;20025;-72
2022/09/22 01:59:52;;;;;;;9.13;4.20;;;;;;;7.34;97.29;102553.31;5031175;28;20057;-73
2022/09/22 02:02:36;;;;;;;9.40;4.93;;;;;;;7.31;97.44;102557.19;5031068;28;20030;-73
2022/09/22 02:05:05;;;;;;;10.02;4.63;;;;;;;7.32;97.63;102552.59;5031460;28;20029;-74
2022/09/22 02:07:37;;;;;;;9.27;4.15;;;;;;;7.32;97.03;102547.16;5030993;28;20101;-74
2022/09/22 02:10:08;;;;;;;8.50;4.40;;;;;;;7.31;96.88;102550.88;5031672;28;20031;-73
2022/09/22 02:12:35;;;;;;;9.48;4.97;;;;;;;7.32;96.78;102547.16;5030748;28;20410;-74
2022/09/22 02:15:01;;;;;;;7.63;4.63;;;;;;;7.32;97.13;102541.72;5031126;28;20037;-74
2022/09/22 02:17:27;;;;;;;12.15;4.80;;;;;;;7.30;96.87;102539.09;5030896;28;20040;-74
2022/09/22 02:19:53;;;;;;;8.48;4.40;;;;;;;7.31;96.51;102542.72;5031176;28;20021;-73
2022/09/22 02:22:19;;;;;;;11.43;5.70;;;;;;;7.26;96.93;102534.06;5030935;28;20115;-74
2022/09/22 02:24:45;;;;;;;10.50;5.30;;;;;;;7.19;96.89;102533.75;5030890;28;20037;-73
2022/09/22 02:27:25;;;;;;;7.57;4.93;;;;;;;7.19;96.64;102530.13;5030994;28;20053;-74
2022/09/22 02:30:01;;;;;;;6.95;5.60;;;;;;;7.19;97.70;102521.97;5030960;28;20053;-73
2022/09/22 02:32:28;;;;;;;10.95;6.13;;;;;;;7.15;96.76;102523.25;5030645;28;20105;-73
2022/09/22 02:34:54;;;;;;;9.70;6.00;;;;;;;7.14;97.51;102525.09;5030754;28;20028;-73
2022/09/22 02:37:35;;;;;;;8.48;5.78;;;;;;;7.12;97.12;102523.50;5030803;28;20124;-73
2022/09/22 02:40:08;;;;;;;12.25;6.57;;;;;;;7.12;96.90;102524.38;5030870;28;20091;-73
2022/09/22 02:42:40;;;;;;;9.63;6.47;;;;;;;7.06;96.38;102524.88;5030554;28;20037;-73
2022/09/22 02:45:16;;;;;;;14.68;6.20;;;;;;;7.04;97.24;102520.59;5030786;28;20033;-74
2022/09/22 02:47:41;;;;;;;12.88;6.53;;;;;;;7.07;96.56;102525.78;5030745;28;20256;-74
2022/09/22 02:50:10;;;;;;;11.50;6.45;;;;;;;7.01;97.07;102526.31;5030859;28;20034;-73
2022/09/22 02:52:37;;;;;;;9.30;6.40;;;;;;;7.02;97.41;102517.13;5012757;28;20048;-74
2022/09/22 02:55:04;;;;;;;13.90;7.10;;;;;;;7.00;96.24;102519.97;5030563;28;20030;-74
2022/09/22 02:57:30;;;;;;;15.32;7.82;;;;;;;6.97;97.42;102514.81;5030831;28;20109;-74
2022/09/22 02:59:55;;;;;;;13.25;8.23;;;;;;;7.02;96.40;102522.56;5030529;28;20109;-74
2022/09/22 03:02:20;;;;;;;19.42;7.65;;;;;;;6.95;97.52;102519.50;5030295;28;20473;-73
2022/09/22 03:04:46;;;;;;;18.40;7.57;;;;;;;6.97;96.96;102522.13;5030092;28;20124;-73
2022/09/22 03:07:11;;;;;;;10.32;7.22;;;;;;;6.97;96.38;102512.09;5030286;28;20108;-73
2022/09/22 03:09:36;;;;;;;11.88;7.60;;;;;;;7.00;96.80;102513.69;5029961;28;20033;-73
2022/09/22 03:12:02;;;;;;;16.08;7.60;;;;;;;6.91;95.80;102511.75;5030323;28;20459;-73
2022/09/22 03:14:27;;;;;;;15.48;7.78;;;;;;;6.94;96.62;102508.78;5029181;28;20032;-73
2022/09/22 03:16:53;;;;;;;10.40;7.43;;;;;;;6.93;96.87;102498.84;5030098;28;20190;-72
2022/09/22 03:19:18;;;;;;;10.95;7.47;;;;;;;6.97;96.52;102503.03;5030095;28;20021;-73
2022/09/22 03:21:43;;;;;;;10.95;7.97;;;;;;;6.95;96.85;102503.16;5029933;28;20491;-74
2022/09/22 03:24:09;;;;;;;13.70;8.18;;;;;;;6.92;97.38;102502.59;5030123;28;20037;-74
2022/09/22 03:26:34;;;;;;;10.80;8.40;;;;;;;6.90;96.63;102508.16;5029776;28;20029;-73
2022/09/22 03:28:59;;;;;;;12.23;7.97;;;;;;;6.86;96.63;102500.38;5012090;28;20028;-73
2022/09/22 03:31:25;;;;;;;14.93;8.32;;;;;;;6.86;97.57;102500.38;5029768;28;20025;-73
2022/09/22 03:33:50;;;;;;;10.43;8.02;;;;;;;6.84;96.45;102496.94;5029758;28;20030;-74
2022/09/22 03:36:15;;;;;;;15.43;8.05;;;;;;;6.82;96.05;102498.94;5029831;28;20030;-74
2022/09/22 03:38:41;;;;;;;14.23;8.32;;;;;;;6.78;96.15;102486.59;5029595;28;20056;-74
2022/09/22 03:41:06;;;;;;;13.07;9.02;;;;;;;6.73;97.21;102494.28;5029667;28;20025;-73
2022/09/22 03:43:31;;;;;;;11.35;8.73;;;;;;;6.76;96.94;102494.00;5011608;28;20385;-73
2022/09/22 03:45:58;;;;;;;11.32;8.30;;;;;;;6.81;97.74;102498.09;5029722;28;20103;-73
2022/09/22 03:48:25;;;;;;;11.93;8.60;;;;;;;6.81;96.50;102494.47;5029600;28;20045;-74
2022/09/22 03:50:51;;;;;;;;;;;;;;;6.75;96.79;102497.75;5030325;28;20026;-73
2022/09/22 03:53:16;;;;;;;10.95;8.27;;;;;;;6.76;97.17;102497.63;5029584;28;20548;-73
2022/09/22 03:55:41;;;;;;;11.30;8.50;;;;;;;6.73;97.99;102494.28;5029342;28;20040;-73
2022/09/22 03:58:06;;;;;;;13.40;8.45;;;;;;;6.69;96.28;102490.09;5029676;28;20088;-73
2022/09/22 04:00:32;;;;;;;11.35;7.70;;;;;;;6.68;96.81;102491.09;5029360;28;20076;-74
2022/09/22 04:02:57;;;;;;;12.25;8.77;;;;;;;6.69;97.60;102485.53;5029294;28;20113;-74
2022/09/22 04:05:23;;;;;;;14.60;9.38;;;;;;;6.70;96.82;102483.66;5011368;28;20034;-73
2022/09/22 04:07:49;;;;;;;12.03;8.83;;;;;;;6.68;96.52;102493.81;5029521;28;20033;-74
2022/09/22 04:10:14;;;;;;;12.55;8.65;;;;;;;6.63;96.92;102491.47;5029629;28;20387;-74
2022/09/22 04:12:40;;;;;;;13.02;9.45;;;;;;;6.66;97.45;102480.34;5029480;28;20104;-74
2022/09/22 04:15:05;;;;;;;16.85;8.85;;;;;;;6.66;97.31;102479.47;5029355;28;20100;-73
2022/09/22 04:17:31;;;;;;;16.45;9.82;;;;;;;6.68;97.59;102482.94;5029152;28;20469;-73
2022/09/22 04:19:56;;;;;;;11.65;8.45;;;;;;;6.65;96.32;102477.75;5011596;28;20091;-73
2022/09/22 04:22:22;;;;;;;13.40;8.65;;;;;;;6.69;97.70;102479.22;5029219;28;20109;-73
2022/09/22 04:24:47;;;;;;;10.80;8.70;;;;;;;6.65;97.02;102481.34;5029572;28;20030;-74
2022/09/22 04:27:12;;;;;;;12.90;10.02;;;;;;;6.64;97.01;102473.28;5032913;28;20045;-73
2022/09/22 04:29:37;;;;;;;13.02;9.35;;;;;;;6.55;97.21;102479.53;5032554;28;20121;-74
2022/09/22 04:32:03;;;;;;;15.38;9.85;;;;;;;6.53;97.71;102476.09;5033120;28;20546;-74
2022/09/22 04:34:28;;;;;;;12.90;8.55;;;;;;;6.52;97.33;102474.34;5032447;28;20029;-74
2022/09/22 04:36:54;;;;;;;15.15;9.88;;;;;;;6.46;97.53;102470.28;5032838;28;20032;-73
2022/09/22 04:39:19;;;;;;;12.93;9.48;;;;;;;6.47;97.08;102474.72;5032993;28;20029;-73
2022/09/22 04:41:44;;;;;;;13.20;9.88;;;;;;;6.49;97.53;102471.88;5014785;28;20510;-73
2022/09/22 04:44:09;;;;;;;20.40;9.90;;;;;;;6.51;96.31;102473.47;5032712;28;20044;-74
2022/09/22 04:46:35;;;;;;;17.15;9.82;;;;;;;6.50;96.49;102479.06;5032463;28;20022;-73
2022/09/22 04:49:00;;;;;;;16.08;10.32;;;;;;;6.44;97.07;102476.84;5032747;28;20029;-73
2022/09/22 04:51:25;;;;;;;19.35;11.07;;;;;;;6.43;97.57;102470.56;5032362;28;20025;-73
2022/09/22 04:53:51;;;;;;;17.23;11.38;;;;;;;6.46;98.47;102480.34;5032537;28;20030;-73
2022/09/22 04:56:16;;;;;;;14.43;11.15;;;;;;;6.44;97.29;102471.41;5032201;28;20360;-73
2022/09/22 04:58:41;;;;;;;13.10;10.88;;;;;;;6.49;97.37;102475.47;5032189;28;20058;-73
2022/09/22 05:01:07;;;;;;;15.38;10.48;;;;;;;6.48;97.03;102473.75;5032217;28;20033;-74
2022/09/22 05:03:36;;;;;;;14.57;10.13;;;;;;;6.40;96.46;102465.38;5031962;28;20040;-73
2022/09/22 05:06:02;;;;;;;15.68;10.88;;;;;;;6.42;97.44;102473.41;5032368;28;20108;-73
2022/09/22 05:08:27;;;;;;;15.25;10.82;;;;;;;6.45;97.78;102478.56;5032152;28;20501;-73
2022/09/22 05:10:52;;;;;;;16.73;12.15;;;;;;;6.41;97.78;102477.13;5032512;28;20026;-73
2022/09/22 05:13:18;;;;;;;24.17;12.93;;;;;;;6.43;97.65;102477.84;5032325;28;20392;-73
2022/09/22 05:15:43;;;;;;;17.25;12.43;;;;;;;6.41;98.55;102468.97;5031885;28;20121;-74
2022/09/22 05:18:09;;;;;;;15.98;11.68;;;;;;;6.40;97.91;102465.38;5032271;28;20061;-75
2022/09/22 05:20:34;;;;;;;16.88;12.20;;;;;;;6.44;97.44;102468.69;5031755;28;20031;-75
2022/09/22 05:22:59;;;;;;;13.18;11.43;;;;;;;6.39;97.28;102470.94;5032354;28;20029;-73
2022/09/22 05:25:26;;;;;;;16.70;13.10;;;;;;;6.44;97.70;102480.47;5031916;28;20053;-72
2022/09/22 05:27:53;;;;;;;22.08;12.48;;;;;;;6.46;97.99;102477.59;5032181;28;20472;-73
2022/09/22 05:30:20;;;;;;;19.02;13.82;;;;;;;6.48;97.78;102476.47;5032017;28;20030;-73
2022/09/22 05:32:47;;;;;;;18.98;13.52;;;;;;;6.49;96.84;102477.34;5031839;28;20116;-71
2022/09/22 05:35:14;;;;;;;17.33;13.32;;;;;;;6.46;97.05;102480.34;5014231;28;20437;-72
2022/09/22 05:37:43;;;;;;;;;;;;;;;6.46;97.40;102477.59;5046801;28;20025;-72
2022/09/22 05:40:09;;;;;;;14.80;12.35;;;;;;;6.43;97.38;102470.56;5031917;28;19963;-72
2022/09/22 05:42:48;;;;;;;18.67;13.55;;;;;;;6.48;97.27;102475.59;5031609;28;20022;-73
2022/09/22 05:45:14;;;;;;;20.80;13.77;;;;;;;6.50;97.06;102481.78;5032038;28;20388;-74
2022/09/22 05:47:40;;;;;;;20.75;13.70;;;;;;;6.54;97.59;102473.22;5031430;28;20381;-72
2022/09/22 05:50:07;;;;;;;19.90;14.38;;;;;;;6.53;97.80;102487.84;5031665;28;20086;-73
2022/09/22 05:52:33;;;;;;;17.33;14.05;;;;;;;6.56;97.28;102486.72;5013550;28;20369;-72
2022/09/22 05:54:58;;;;;;;18.38;14.43;;;;;;;6.60;97.68;102482.72;5031632;28;20086;-74
2022/09/22 05:57:26;;;;;;;21.88;15.00;;;;;;;6.59;97.88;102478.28;5031297;28;20028;-74
2022/09/22 05:59:54;;;;;;;19.83;14.30;;;;;;;6.62;97.88;102478.88;5031345;28;20034;-72
2022/09/22 06:02:20;;;;;;;21.73;15.55;;;;;;;6.69;97.65;102481.94;5031474;28;20030;-74
2022/09/22 06:04:45;;;;;;;24.10;15.57;;;;;;;6.66;97.18;102479.47;5031640;28;20033;-74
2022/09/22 06:07:11;;;;;;;22.02;15.35;;;;;;;6.72;97.11;102479.81;5031456;28;20480;-74
2022/09/22 06:09:36;;;;;;;26.42;16.88;;;;;;;6.74;97.95;102471.50;5031173;28;20041;-74
2022/09/22 06:12:02;;;;;;;25.23;16.42;;;;;;;6.80;97.45;102484.59;5031437;28;20469;-74
2022/09/22 06:14:27;;;;;;;21.23;15.15;;;;;;;6.82;98.41;102479.84;5031132;28;20049;-74
2022/09/22 06:16:53;;;;;;;21.08;15.38;;;;;;;6.88;97.12;102476.63;5031349;28;20079;-75
2022/09/22 06:19:19;;;;;;;26.20;16.75;;;;;;;6.96;97.39;102482.25;5013459;28;20112;-74
2022/09/22 06:21:44;;;;;;;20.80;15.85;;;;;;;6.98;97.43;102480.25;5031050;28;20455;-74
2022/09/22 06:24:10;;;;;;;19.83;15.55;;;;;;;7.05;97.19;102476.00;5031293;28;20091;-74
2022/09/22 06:26:35;;;;;;;21.75;16.02;;;;;;;7.11;96.84;102486.38;5031209;28;20087;-74
2022/09/22 06:29:01;;;;;;;17.90;14.57;;;;;;;7.12;96.92;102474.47;5031499;28;20033;-74
2022/09/22 06:31:26;;;;;;;24.27;15.50;;;;;;;7.20;97.09;102475.50;5031071;28;20083;-74
2022/09/22 06:33:53;;;;;;;21.23;15.73;;;;;;;7.27;96.90;102478.56;5031130;28;20030;-74
2022/09/22 06:36:30;;;;;;;24.50;17.05;;;;;;;7.35;96.40;102476.00;5031040;28;20041;-75
2022/09/22 06:39:00;;;;;;;26.50;17.00;;;;;;;7.41;97.63;102470.88;5013190;28;20174;-74
2022/09/22 06:41:30;;;;;;;28.00;18.52;;;;;;;7.53;97.83;102468.91;5030835;28;20100;-74
2022/09/22 06:43:55;;;;;;;24.67;18.33;;;;;;;7.62;97.21;102470.78;5013249;28;20176;-73
2022/09/22 06:46:23;;;;;;;30.70;20.65;;;;;;;7.76;98.38;102471.28;5030862;28;20492;-74
2022/09/22 06:48:50;;;;;;;32.17;20.35;;;;;;;7.88;98.19;102470.16;5029847;28;20053;-74
2022/09/22 06:51:16;;;;;;;31.80;21.15;;;;;;;8.12;98.91;102475.25;5030881;28;20028;-74
2022/09/22 06:53:43;;;;;;;32.50;22.33;;;;;;;8.14;98.34;102470.50;5012772;28;20025;-74
2022/09/22 06:56:08;;;;;;;;;;;;;;;8.23;98.08;102478.72;5031230;28;20041;-74
2022/09/22 06:58:33;;;;;;;30.90;21.25;;;;;;;8.29;97.66;102472.72;5030346;28;19924;-74
2022/09/22 07:01:05;;;;;;;27.25;20.40;;;;;;;8.34;97.25;102478.56;5030820;28;20064;-72
2022/09/22 07:03:32;;;;;;;30.38;21.25;;;;;;;8.45;97.60;102477.59;5030687;28;20025;-74
2022/09/22 07:06:02;;;;;;;38.25;24.23;;;;;;;8.60;98.54;102477.00;5030779;28;20040;-71
2022/09/22 07:08:29;;;;;;;31.02;23.00;;;;;;;8.72;98.35;102469.53;5030446;28;20025;-74
2022/09/22 07:11:03;;;;;;;38.25;22.65;;;;;;;8.78;97.71;102467.06;5030553;28;20032;-74
2022/09/22 07:13:30;;;;;;;31.63;20.95;;;;;;;8.90;97.58;102463.16;5030246;28;20033;-74
2022/09/22 07:16:03;;;;;;;31.52;22.45;;;;;;;9.04;97.01;102461.84;5030409;28;20404;-75
2022/09/22 07:18:29;;;;;;;27.30;22.50;;;;;;;9.32;97.03;102456.28;5030209;28;20029;-74
2022/09/22 07:21:13;;;;;;;38.75;24.55;;;;;;;9.57;96.50;102460.19;5030226;28;20698;-75
2022/09/22 07:23:40;;;;;;;27.90;22.27;;;;;;;9.65;95.80;102457.53;5030182;28;20033;-74
2022/09/22 07:26:09;;;;;;;35.95;23.05;;;;;;;9.85;95.42;102456.44;5030325;28;20056;-74
2022/09/22 07:28:35;;;;;;;28.45;22.90;;;;;;;9.99;94.91;102451.28;5029970;28;20029;-74
2022/09/22 07:31:22;;;;;;;32.10;22.30;;;;;;;10.20;94.02;102451.91;5030399;28;20030;-74
2022/09/22 07:33:47;;;;;;;34.28;21.88;;;;;;;10.41;93.34;102446.97;5030179;28;20037;-74
2022/09/22 07:36:14;;;;;;;39.10;22.15;;;;;;;10.66;90.69;102450.78;5030295;28;20399;-74
2022/09/22 07:38:40;;;;;;;;;;;;;;;10.67;91.36;102455.25;5030350;28;20033;-72
2022/09/22 07:41:08;;;;;;;29.80;20.40;;;;;;;10.81;91.71;102449.19;5030119;28;19920;-72
2022/09/22 07:43:34;;;;;;;28.08;19.80;;;;;;;10.92;90.54;102446.19;5029764;28;20040;-74
2022/09/22 07:45:59;;;;;;;30.73;18.57;;;;;;;11.22;88.23;102448.47;5030161;28;20053;-72
2022/09/22 07:48:36;;;;;;;27.43;16.93;;;;;;;11.33;86.78;102450.91;5029739;28;20029;-72
2022/09/22 07:51:24;;;;;;;23.95;15.77;;;;;;;11.45;85.76;102450.47;5029848;28;20037;-72
2022/09/22 07:53:52;;;;;;;;;;;;;;;11.61;83.00;102442.34;5030858;28;20022;-72
2022/09/22 07:56:19;;;;;;;;;;;;;;;11.71;82.77;102444.97;5030627;28;19979;-73
2022/09/22 07:58:50;;;;;;;23.33;13.75;;;;;;;11.71;81.86;102456.81;5030430;28;20045;-73
2022/09/22 08:01:18;;;;;;;24.20;13.73;;;;;;;11.84;82.02;102454.44;5033851;28;20053;-73
2022/09/22 08:03:45;;;;;;;27.38;13.65;;;;;;;11.92;82.14;102445.38;5033696;28;20028;-73
2022/09/22 08:06:10;;;;;;;;;;;;;;;11.98;82.85;102448.31;5034220;28;20073;-73
2022/09/22 08:08:41;;;;;;;26.80;13.70;;;;;;;12.04;81.59;102444.03;5033741;28;19913;-73
2022/09/22 08:11:12;;;;;;;26.70;13.93;;;;;;;12.05;81.24;102434.75;5033903;28;20108;-72
2022/09/22 08:13:37;;;;;;;18.23;12.38;;;;;;;12.25;80.02;102442.53;5015863;28;20041;-73
2022/09/22 08:16:03;;;;;;;21.30;12.23;;;;;;;12.36;78.05;102446.84;5033826;28;20035;-73
2022/09/22 08:18:30;;;;;;;15.87;11.07;;;;;;;12.49;79.01;102441.72;5033419;28;20434;-73
2022/09/22 08:20:56;;;;;;;18.85;11.77;;;;;;;12.57;78.84;102436.22;5033599;28;20025;-73
2022/09/22 08:23:22;;;;;;;17.67;11.47;;;;;;;12.57;78.81;102438.97;5033285;28;20080;-73
2022/09/22 08:25:49;;;;;;;17.17;11.43;;;;;;;12.76;78.27;102436.72;5033424;28;20435;-72
2022/09/22 08:28:14;;;;;;;17.75;10.55;;;;;;;12.91;74.86;102437.75;5033282;28;20036;-73
2022/09/22 08:30:44;;;;;;;19.03;9.63;;;;;;;13.09;74.35;102429.34;5033276;28;20021;-72
2022/09/22 08:33:10;;;;;;;16.27;8.80;;;;;;;13.13;73.63;102431.56;5048385;28;20369;-73
2022/09/22 08:35:35;;;;;;;13.70;9.03;;;;;;;13.18;73.94;102433.78;5033097;28;20032;-72
2022/09/22 08:38:00;;;;;;;14.50;8.40;;;;;;;13.34;74.47;102423.59;5015406;28;20477;-73
2022/09/22 08:40:27;;;;;;;17.77;9.87;;;;;;;13.41;75.03;102424.63;5033082;28;20049;-73
2022/09/22 08:42:54;;;;;;;;;;;;;;;13.58;73.58;102419.88;5033628;28;20498;-72
2022/09/22 08:45:35;;;;;;;17.95;8.52;;;;;;;13.71;73.51;102423.78;5033395;28;20216;-72
2022/09/22 08:53:58;;;;;;;11.35;8.32;;;;;;;14.17;71.23;102419.22;5033409;28;20124;-73
2022/09/22 08:56:34;;;;;;;13.00;8.67;;;;;;;14.38;70.98;102419.44;5032922;28;20120;-73
2022/09/22 08:59:21;;;;;;;17.17;9.25;;;;;;;14.55;70.37;102421.03;5032995;28;20033;-73
2022/09/22 09:02:24;;;;;;;13.00;7.97;;;;;;;14.68;69.17;102415.78;5032921;28;20384;-73
2022/09/22 09:05:10;;;;;;;12.32;9.23;;;;;;;14.82;69.70;102426.84;5032944;28;20045;-73
2022/09/22 09:07:36;;;;;;;11.98;8.07;;;;;;;14.88;68.79;102428.00;5032693;28;20105;-73
2022/09/22 09:10:25;;;;;;;13.00;8.27;;;;;;;14.91;69.40;102419.34;5032767;28;20061;-73
2022/09/22 09:13:22;;;;;;;14.05;7.97;;;;;;;15.01;68.86;102423.56;5032432;28;20029;-73
2022/09/22 09:16:26;;;;;;;9.65;8.10;;;;;;;15.35;66.44;102417.50;5032387;28;20037;-73
2022/09/22 09:19:05;;;;;;;13.50;8.35;;;;;;;15.32;67.36;102420.66;5009383;28;20037;-72
2022/09/22 09:21:38;;;;;;;12.80;8.55;;;;;;;15.43;67.67;102425.72;5032522;28;20018;-73
2022/09/22 09:24:09;;;;;;;13.90;7.65;;;;;;;15.51;68.16;102431.13;5032573;28;20041;-73
2022/09/22 09:26:34;;;;;;;11.35;8.05;;;;;;;15.69;66.55;102426.94;5032504;28;20476;-73
2022/09/22 09:29:04;;;;;;;15.17;7.93;;;;;;;15.90;66.93;102431.69;5032517;28;20033;-72
2022/09/22 09:31:37;;;;;;;10.38;6.57;;;;;;;15.98;64.95;102428.81;5032336;28;20013;-72
2022/09/22 09:34:06;;;;;;;14.45;6.95;;;;;;;16.09;65.37;102428.28;5014595;28;20136;-73
2022/09/22 09:36:36;;;;;;;10.48;7.43;;;;;;;16.17;65.81;102426.28;5032308;28;20048;-73
2022/09/22 09:39:12;;;;;;;10.50;6.93;;;;;;;16.26;63.04;102432.53;5032278;28;20076;-73
2022/09/22 09:41:38;;;;;;;9.20;7.18;;;;;;;16.42;64.12;102426.78;5032144;28;20026;-73
2022/09/22 09:44:04;;;;;;;8.93;6.72;;;;;;;16.59;64.61;102429.09;5032275;28;20083;-73
2022/09/22 09:46:42;;;;;;;12.70;6.33;;;;;;;16.69;63.68;102423.22;5032211;28;20037;-73
2022/09/22 09:49:14;;;;;;;;;;;;;;;16.82;63.19;102429.72;5032582;28;20061;-73
2022/09/22 09:51:46;;;;;;;12.27;6.95;;;;;;;17.08;62.79;102426.34;5032055;28;19913;-73
2022/09/22 09:54:14;;;;;;;15.40;6.63;;;;;;;17.25;63.97;102424.97;5032101;28;20129;-73
2022/09/22 09:57:07;;;;;;;14.05;7.00;;;;;;;17.23;60.45;102430.72;5031830;28;20083;-73
2022/09/22 10:02:23;;;;;;;13.30;7.35;;;;;;;17.30;61.20;102423.31;5031821;28;20056;-73
2022/09/22 10:04:52;;;;;;;10.82;6.30;;;;;;;17.56;61.31;102412.41;5031873;28;20028;-73
2022/09/22 10:07:25;;;;;;;7.45;6.30;;;;;;;17.62;61.86;102416.31;5031870;28;20060;-73
2022/09/22 10:09:52;;;;;;;11.43;5.32;;;;;;;17.70;60.22;102408.66;5031834;28;20030;-73
2022/09/22 10:12:24;;;;;;;8.27;5.28;;;;;;;17.85;59.19;102405.75;5031843;28;20108;-72
2022/09/22 10:14:52;;;;;;;8.30;6.53;;;;;;;17.96;58.44;102413.47;5031768;28;20061;-73
2022/09/22 10:17:41;;;;;;;11.27;5.38;;;;;;;17.94;59.29;102402.56;5031648;28;20053;-73
2022/09/22 10:20:15;;;;;;;8.60;5.30;;;;;;;18.16;58.31;102403.31;5031615;28;20029;-73
2022/09/22 10:22:41;;;;;;;9.00;5.68;;;;;;;18.27;57.77;102409.09;5031411;28;20032;-73
2022/09/22 10:25:30;;;;;;;8.57;5.00;;;;;;;18.54;58.61;102399.81;5031518;28;20115;-73
2022/09/22 10:28:12;;;;;;;11.82;5.18;;;;;;;18.64;58.40;102405.78;5031505;28;20030;-73
2022/09/22 10:30:39;;;;;;;10.65;5.72;;;;;;;18.46;56.19;102393.59;5031267;28;20134;-73
2022/09/22 10:33:12;;;;;;;8.75;5.22;;;;;;;18.72;56.83;102393.63;5031564;28;20030;-73
2022/09/22 10:35:39;;;;;;;9.55;4.80;;;;;;;18.79;57.83;102392.53;5031322;28;20063;-73
2022/09/22 10:38:17;;;;;;;11.25;4.85;;;;;;;18.83;55.36;102384.66;5031254;28;20038;-73
2022/09/22 10:40:47;;;;;;;7.85;4.43;;;;;;;18.89;55.10;102381.84;5031305;28;20029;-73
2022/09/22 10:43:49;;;;;;;8.55;4.25;;;;;;;19.03;54.82;102377.16;5031209;28;20025;-73
2022/09/22 10:46:27;;;;;;;16.08;4.80;;;;;;;19.33;54.89;102370.09;5031171;28;20037;-73
2022/09/22 10:49:02;;;;;;;16.85;4.07;;;;;;;19.29;54.36;102379.91;5031226;28;20053;-73
2022/09/22 10:51:53;;;;;;;8.48;3.88;;;;;;;19.43;53.15;102382.44;5031103;28;20480;-73
2022/09/22 10:54:48;;;;;;;5.40;2.72;;;;;;;19.42;52.65;102369.63;5031039;28;20022;-73
2022/09/22 10:57:36;;;;;;;9.88;3.40;;;;;;;19.49;51.97;102375.19;5031091;28;20502;-73
2022/09/22 11:00:10;;;;;;;6.82;2.97;;;;;;;19.56;52.40;102373.22;5031192;28;20116;-73
2022/09/22 11:03:09;;;;;;;6.35;3.20;;;;;;;19.48;51.65;102371.53;5030783;28;20044;-73
2022/09/22 11:12:15;;;;;;;5.60;3.20;;;;;;;19.84;50.18;102362.66;5031039;28;20053;-73
2022/09/22 11:15:06;;;;;;;4.97;3.00;;;;;;;20.05;48.28;102365.94;5031085;28;20330;-74
2022/09/22 11:17:43;;;;;;;5.35;3.47;;;;;;;19.91;48.83;102355.94;5030521;28;20476;-73
2022/09/22 11:20:27;;;;;;;;;;;;;;;20.07;50.68;102362.97;5031096;28;20033;-74
2022/09/22 11:23:21;;;;;;;6.35;2.78;;;;;;;20.19;47.56;102363.97;5030515;28;19913;-73
2022/09/22 11:26:21;;;;;;;5.28;3.28;;;;;;;19.73;49.93;102344.72;5030474;28;20069;-73
2022/09/22 11:29:08;;;;;;;5.10;3.05;;;;;;;19.71;50.54;102343.22;5030517;28;20273;-73
2022/09/22 11:32:20;;;;;;;3.58;2.03;;;;;;;19.97;46.72;102346.75;5030882;28;20041;-73
2022/09/22 11:35:15;;;;;;;11.05;2.80;;;;;;;20.23;47.26;102345.75;5029868;28;20033;-73
2022/09/22 11:38:08;;;;;;;4.68;2.38;;;;;;;20.51;45.92;102346.19;5019648;28;20053;-73
2022/09/22 11:41:02;;;;;;;6.05;2.97;;;;;;;20.61;48.53;102333.47;5030450;28;20033;-73
2022/09/22 11:43:41;;;;;;;6.53;2.50;;;;;;;20.66;47.10;102335.56;5045461;28;20034;-73
2022/09/22 11:46:28;;;;;;;6.78;3.00;;;;;;;20.81;45.62;102327.72;5030156;28;20128;-73
2022/09/22 11:49:05;;;;;;;4.68;2.80;;;;;;;20.81;44.81;102324.94;5030155;28;20037;-73
2022/09/22 11:51:49;;;;;;;;;;;;;;;20.70;44.10;102320.97;5030626;28;20040;-73
2022/09/22 11:54:20;;;;;;;8.90;2.38;;;;;;;20.70;44.07;102318.16;5030393;28;19916;-73
2022/09/22 11:56:50;;;;;;;5.00;2.90;;;;;;;20.67;43.42;102309.41;5030196;28;20400;-73
2022/09/22 11:59:35;;;;;;;8.50;2.40;;;;;;;20.78;44.70;102315.13;5030231;28;20033;-73